sensor_id;sensor_type;location;lat;lon;timestamp;pressure;altitude;pressure_sealevel;temperature;humidity
10668;BME280;5382;42.136;24.796;2022-07-29T00:01:53;99874.56;;;24.10;95.55
10668;BME280;5382;42.136;24.796;2022-07-29T00:04:20;99877.47;;;24.08;95.84
10668;BME280;5382;42.136;24.796;2022-07-29T00:06:47;99876.47;;;23.81;98.25
10668;BME280;5382;42.136;24.796;2022-07-29T00:09:14;99894.31;;;23.76;99.70
10668;BME280;5382;42.136;24.796;2022-07-29T00:11:42;99881.19;;;23.72;100.00
10668;BME280;5382;42.136;24.796;2022-07-29T00:14:09;99899.19;;;23.65;100.00
10668;BME280;5382;42.136;24.796;2022-07-29T00:16:36;99890.31;;;23.50;100.00
10668;BME280;5382;42.136;24.796;2022-07-29T00:19:03;99889.75;;;23.33;100.00
10668;BME280;5382;42.136;24.796;2022-07-29T00:21:30;99881.53;;;23.20;100.00
10668;BME280;5382;42.136;24.796;2022-07-29T00:23:57;99885.00;;;23.14;100.00
10668;BME280;5382;42.136;24.796;2022-07-29T00:26:24;99889.84;;;23.18;100.00
10668;BME280;5382;42.136;24.796;2022-07-29T00:28:54;99888.47;;;23.29;100.00
10668;BME280;5382;42.136;24.796;2022-07-29T00:31:21;99885.38;;;23.32;100.00
10668;BME280;5382;42.136;24.796;2022-07-29T00:33:48;99876.00;;;23.28;100.00
10668;BME280;5382;42.136;24.796;2022-07-29T00:36:15;99883.97;;;23.36;100.00
10668;BME280;5382;42.136;24.796;2022-07-29T00:38:41;99885.94;;;23.49;100.00
10668;BME280;5382;42.136;24.796;2022-07-29T00:41:11;99898.44;;;23.50;100.00
10668;BME280;5382;42.136;24.796;2022-07-29T00:43:39;99735.84;;;22.62;100.00
10668;BME280;5382;42.136;24.796;2022-07-29T00:46:11;99792.25;;;23.00;100.00
10668;BME280;5382;42.136;24.796;2022-07-29T00:48:42;99811.53;;;22.97;100.00
10668;BME280;5382;42.136;24.796;2022-07-29T00:51:12;99792.75;;;22.67;100.00
10668;BME280;5382;42.136;24.796;2022-07-29T00:53:39;99820.28;;;22.99;100.00
10668;BME280;5382;42.136;24.796;2022-07-29T00:56:08;99794.13;;;22.99;100.00
10668;BME280;5382;42.136;24.796;2022-07-29T00:58:42;99880.59;;;23.56;100.00
10668;BME280;5382;42.136;24.796;2022-07-29T01:01:18;99799.28;;;23.16;100.00
10668;BME280;5382;42.136;24.796;2022-07-29T01:03:51;99895.38;;;23.81;100.00
10668;BME280;5382;42.136;24.796;2022-07-29T01:06:21;99763.44;;;23.00;100.00
10668;BME280;5382;42.136;24.796;2022-07-29T01:08:50;99626.59;;;22.23;100.00
10668;BME280;5382;42.136;24.796;2022-07-29T01:11:20;99671.28;;;22.54;100.00
10668;BME280;5382;42.136;24.796;2022-07-29T01:17:09;99633.91;;;22.29;100.00
10668;BME280;5382;42.136;24.796;2022-07-29T01:20:02;99918.88;;;23.81;100.00
10668;BME280;5382;42.136;24.796;2022-07-29T01:22:37;99667.28;;;22.28;100.00
10668;BME280;5382;42.136;24.796;2022-07-29T01:25:32;99637.38;;;22.23;100.00
10668;BME280;5382;42.136;24.796;2022-07-29T01:28:47;99889.16;;;23.81;100.00
10668;BME280;5382;42.136;24.796;2022-07-29T01:31:21;99660.69;;;21.94;100.00
10668;BME280;5382;42.136;24.796;2022-07-29T01:33:54;99886.22;;;23.33;100.00
10668;BME280;5382;42.136;24.796;2022-07-29T01:36:32;99883.28;;;23.06;100.00
10668;BME280;5382;42.136;24.796;2022-07-29T01:39:05;99683.25;;;21.78;100.00
10668;BME280;5382;42.136;24.796;2022-07-29T01:41:38;99880.84;;;22.96;100.00
10668;BME280;5382;42.136;24.796;2022-07-29T01:44:13;99884.66;;;23.02;100.00
10668;BME280;5382;42.136;24.796;2022-07-29T01:46:58;99878.69;;;23.06;100.00
10668;BME280;5382;42.136;24.796;2022-07-29T01:49:30;99881.84;;;23.10;100.00
10668;BME280;5382;42.136;24.796;2022-07-29T01:52:00;99880.53;;;23.21;100.00
10668;BME280;5382;42.136;24.796;2022-07-29T01:54:34;99876.34;;;23.18;100.00
10668;BME280;5382;42.136;24.796;2022-07-29T01:57:03;99855.25;;;23.28;100.00
10668;BME280;5382;42.136;24.796;2022-07-29T01:59:34;99867.19;;;23.41;100.00
10668;BME280;5382;42.136;24.796;2022-07-29T02:02:01;99872.06;;;23.52;100.00
10668;BME280;5382;42.136;24.796;2022-07-29T02:04:29;99856.13;;;23.36;100.00
10668;BME280;5382;42.136;24.796;2022-07-29T02:07:02;99851.75;;;23.35;100.00
10668;BME280;5382;42.136;24.796;2022-07-29T02:09:32;99869.63;;;23.57;100.00
10668;BME280;5382;42.136;24.796;2022-07-29T02:12:02;99873.78;;;23.60;100.00
10668;BME280;5382;42.136;24.796;2022-07-29T02:14:41;99873.00;;;23.66;100.00
10668;BME280;5382;42.136;24.796;2022-07-29T02:17:21;99836.75;;;23.54;100.00
10668;BME280;5382;42.136;24.796;2022-07-29T02:19:52;99884.00;;;23.86;100.00
10668;BME280;5382;42.136;24.796;2022-07-29T02:22:23;99628.06;;;22.26;100.00
10668;BME280;5382;42.136;24.796;2022-07-29T02:24:56;99821.38;;;23.54;100.00
10668;BME280;5382;42.136;24.796;2022-07-29T02:27:35;99603.88;;;22.32;100.00
10668;BME280;5382;42.136;24.796;2022-07-29T02:30:10;99640.97;;;22.52;100.00
10668;BME280;5382;42.136;24.796;2022-07-29T02:32:44;99637.94;;;22.61;100.00
10668;BME280;5382;42.136;24.796;2022-07-29T02:35:16;99864.16;;;24.07;100.00
10668;BME280;5382;42.136;24.796;2022-07-29T02:37:45;99848.13;;;23.99;100.00
10668;BME280;5382;42.136;24.796;2022-07-29T02:40:34;99865.63;;;24.09;100.00
10668;BME280;5382;42.136;24.796;2022-07-29T02:43:08;99703.03;;;23.01;100.00
10668;BME280;5382;42.136;24.796;2022-07-29T02:45:37;99873.50;;;24.04;100.00
10668;BME280;5382;42.136;24.796;2022-07-29T02:48:10;99858.13;;;24.05;100.00
10668;BME280;5382;42.136;24.796;2022-07-29T02:50:43;99859.53;;;24.01;100.00
10668;BME280;5382;42.136;24.796;2022-07-29T02:53:15;99820.59;;;23.60;100.00
10668;BME280;5382;42.136;24.796;2022-07-29T02:55:46;99865.81;;;24.01;100.00
10668;BME280;5382;42.136;24.796;2022-07-29T02:58:22;99830.81;;;23.65;100.00
10668;BME280;5382;42.136;24.796;2022-07-29T03:00:57;99869.03;;;23.90;100.00
10668;BME280;5382;42.136;24.796;2022-07-29T03:03:32;99863.09;;;24.01;100.00
10668;BME280;5382;42.136;24.796;2022-07-29T03:06:04;99866.81;;;24.00;100.00
10668;BME280;5382;42.136;24.796;2022-07-29T03:08:37;99858.19;;;23.83;100.00
10668;BME280;5382;42.136;24.796;2022-07-29T03:11:05;99770.13;;;23.33;100.00
10668;BME280;5382;42.136;24.796;2022-07-29T03:13:35;99873.06;;;24.01;100.00
10668;BME280;5382;42.136;24.796;2022-07-29T03:16:05;99868.50;;;24.01;100.00
10668;BME280;5382;42.136;24.796;2022-07-29T03:18:33;99868.44;;;23.94;100.00
10668;BME280;5382;42.136;24.796;2022-07-29T03:21:01;99891.53;;;23.97;100.00
10668;BME280;5382;42.136;24.796;2022-07-29T03:23:32;99802.47;;;23.54;100.00
10668;BME280;5382;42.136;24.796;2022-07-29T03:26:00;99881.03;;;24.09;100.00
10668;BME280;5382;42.136;24.796;2022-07-29T03:28:30;99816.97;;;23.75;100.00
10668;BME280;5382;42.136;24.796;2022-07-29T03:30:58;99889.38;;;24.14;100.00
10668;BME280;5382;42.136;24.796;2022-07-29T03:33:27;99806.59;;;23.50;100.00
10668;BME280;5382;42.136;24.796;2022-07-29T03:35:55;99766.91;;;23.22;100.00
10668;BME280;5382;42.136;24.796;2022-07-29T03:38:28;99880.50;;;23.92;100.00
10668;BME280;5382;42.136;24.796;2022-07-29T03:41:05;99828.25;;;23.57;100.00
10668;BME280;5382;42.136;24.796;2022-07-29T03:43:38;99902.28;;;23.90;100.00
10668;BME280;5382;42.136;24.796;2022-07-29T03:46:09;99795.00;;;23.28;100.00
10668;BME280;5382;42.136;24.796;2022-07-29T03:48:42;99659.66;;;22.32;100.00
10668;BME280;5382;42.136;24.796;2022-07-29T03:51:17;99919.97;;;23.93;100.00
10668;BME280;5382;42.136;24.796;2022-07-29T03:53:48;99896.75;;;23.99;100.00
10668;BME280;5382;42.136;24.796;2022-07-29T03:56:15;99908.91;;;23.81;100.00
10668;BME280;5382;42.136;24.796;2022-07-29T03:58:44;99870.41;;;23.29;100.00
10668;BME280;5382;42.136;24.796;2022-07-29T04:01:12;99907.25;;;23.37;100.00
10668;BME280;5382;42.136;24.796;2022-07-29T04:07:03;99809.81;;;22.53;100.00
10668;BME280;5382;42.136;24.796;2022-07-29T04:09:46;99864.03;;;22.79;100.00
10668;BME280;5382;42.136;24.796;2022-07-29T04:12:15;99916.88;;;23.03;100.00
10668;BME280;5382;42.136;24.796;2022-07-29T04:14:47;99802.16;;;22.05;100.00
10668;BME280;5382;42.136;24.796;2022-07-29T04:17:15;99758.22;;;21.75;100.00
10668;BME280;5382;42.136;24.796;2022-07-29T04:26:06;99932.38;;;22.65;100.00
10668;BME280;5382;42.136;24.796;2022-07-29T04:28:44;99674.25;;;21.27;100.00
10668;BME280;5382;42.136;24.796;2022-07-29T04:31:11;99922.00;;;22.83;100.00
10668;BME280;5382;42.136;24.796;2022-07-29T04:33:39;99897.16;;;22.52;100.00
10668;BME280;5382;42.136;24.796;2022-07-29T04:36:07;99943.88;;;22.74;100.00
10668;BME280;5382;42.136;24.796;2022-07-29T04:38:37;99739.09;;;21.70;100.00
10668;BME280;5382;42.136;24.796;2022-07-29T04:41:07;99897.31;;;22.50;100.00
10668;BME280;5382;42.136;24.796;2022-07-29T04:43:37;99705.00;;;21.32;100.00
10668;BME280;5382;42.136;24.796;2022-07-29T04:46:06;99841.19;;;22.24;100.00
10668;BME280;5382;42.136;24.796;2022-07-29T04:48:34;99944.69;;;22.89;100.00
10668;BME280;5382;42.136;24.796;2022-07-29T04:51:01;99823.41;;;22.15;100.00
10668;BME280;5382;42.136;24.796;2022-07-29T04:53:29;99952.78;;;23.04;100.00
10668;BME280;5382;42.136;24.796;2022-07-29T04:56:02;99939.31;;;23.04;100.00
10668;BME280;5382;42.136;24.796;2022-07-29T04:58:35;99816.94;;;22.24;100.00
10668;BME280;5382;42.136;24.796;2022-07-29T05:01:06;99893.63;;;22.88;100.00
10668;BME280;5382;42.136;24.796;2022-07-29T05:03:39;99861.69;;;22.70;100.00
10668;BME280;5382;42.136;24.796;2022-07-29T05:06:07;99834.75;;;22.76;100.00
10668;BME280;5382;42.136;24.796;2022-07-29T05:08:34;99852.91;;;22.82;100.00
10668;BME280;5382;42.136;24.796;2022-07-29T05:11:01;99785.94;;;22.71;100.00
10668;BME280;5382;42.136;24.796;2022-07-29T05:13:31;99942.16;;;23.60;100.00
10668;BME280;5382;42.136;24.796;2022-07-29T05:16:02;99948.53;;;23.74;100.00
10668;BME280;5382;42.136;24.796;2022-07-29T05:18:36;99793.97;;;22.86;100.00
10668;BME280;5382;42.136;24.796;2022-07-29T05:21:06;99956.75;;;23.66;100.00
10668;BME280;5382;42.136;24.796;2022-07-29T05:23:36;99934.94;;;23.89;100.00
10668;BME280;5382;42.136;24.796;2022-07-29T05:26:03;99945.69;;;24.10;100.00
10668;BME280;5382;42.136;24.796;2022-07-29T05:28:33;99923.97;;;23.97;100.00
10668;BME280;5382;42.136;24.796;2022-07-29T05:31:01;99949.34;;;24.24;100.00
10668;BME280;5382;42.136;24.796;2022-07-29T05:33:28;99899.41;;;23.92;100.00
10668;BME280;5382;42.136;24.796;2022-07-29T05:35:55;99950.66;;;24.35;100.00
10668;BME280;5382;42.136;24.796;2022-07-29T05:38:23;99899.56;;;24.19;98.23
10668;BME280;5382;42.136;24.796;2022-07-29T05:40:49;99961.56;;;24.48;98.25
10668;BME280;5382;42.136;24.796;2022-07-29T05:43:16;99958.28;;;24.53;99.20
10668;BME280;5382;42.136;24.796;2022-07-29T05:45:43;99955.81;;;24.65;98.92
10668;BME280;5382;42.136;24.796;2022-07-29T05:48:11;99950.41;;;24.65;98.19
10668;BME280;5382;42.136;24.796;2022-07-29T05:50:40;99962.53;;;24.69;98.17
10668;BME280;5382;42.136;24.796;2022-07-29T05:53:07;99949.41;;;24.72;97.84
10668;BME280;5382;42.136;24.796;2022-07-29T05:55:33;99965.66;;;24.72;96.66
10668;BME280;5382;42.136;24.796;2022-07-29T05:58:00;99974.03;;;24.84;96.49
10668;BME280;5382;42.136;24.796;2022-07-29T06:00:27;99959.06;;;24.88;94.57
10668;BME280;5382;42.136;24.796;2022-07-29T06:02:55;99923.16;;;24.66;95.39
10668;BME280;5382;42.136;24.796;2022-07-29T06:05:23;99967.44;;;25.07;94.53
10668;BME280;5382;42.136;24.796;2022-07-29T06:07:50;99962.94;;;25.20;94.27
10668;BME280;5382;42.136;24.796;2022-07-29T06:10:17;99973.19;;;25.25;92.85
10668;BME280;5382;42.136;24.796;2022-07-29T06:12:44;99973.00;;;25.33;92.29
10668;BME280;5382;42.136;24.796;2022-07-29T06:15:13;99959.00;;;25.23;93.14
10668;BME280;5382;42.136;24.796;2022-07-29T06:17:40;99964.22;;;25.31;92.42
10668;BME280;5382;42.136;24.796;2022-07-29T06:20:08;99973.44;;;25.43;93.12
10668;BME280;5382;42.136;24.796;2022-07-29T06:22:37;99968.19;;;25.42;92.45
10668;BME280;5382;42.136;24.796;2022-07-29T06:25:04;99964.84;;;25.33;93.13
10668;BME280;5382;42.136;24.796;2022-07-29T06:27:31;99965.88;;;25.32;93.80
10668;BME280;5382;42.136;24.796;2022-07-29T06:29:58;99969.00;;;25.29;94.87
10668;BME280;5382;42.136;24.796;2022-07-29T06:32:25;99965.25;;;25.23;94.89
10668;BME280;5382;42.136;24.796;2022-07-29T06:34:51;99973.19;;;25.25;93.48
10668;BME280;5382;42.136;24.796;2022-07-29T06:37:18;99952.53;;;25.24;92.82
10668;BME280;5382;42.136;24.796;2022-07-29T06:39:46;99943.25;;;24.98;93.88
10668;BME280;5382;42.136;24.796;2022-07-29T06:42:13;99966.09;;;25.37;94.24
10668;BME280;5382;42.136;24.796;2022-07-29T06:44:40;99953.00;;;25.41;94.60
10668;BME280;5382;42.136;24.796;2022-07-29T06:47:07;99959.66;;;25.45;95.13
10668;BME280;5382;42.136;24.796;2022-07-29T06:49:35;99958.81;;;25.44;94.33
10668;BME280;5382;42.136;24.796;2022-07-29T06:52:01;99955.47;;;25.42;93.66
10668;BME280;5382;42.136;24.796;2022-07-29T06:54:29;99939.44;;;25.48;92.43
10668;BME280;5382;42.136;24.796;2022-07-29T06:56:57;99951.38;;;25.66;91.74
10668;BME280;5382;42.136;24.796;2022-07-29T06:59:24;99937.59;;;25.68;91.25
10668;BME280;5382;42.136;24.796;2022-07-29T07:01:51;99950.34;;;25.87;90.22
10668;BME280;5382;42.136;24.796;2022-07-29T07:04:18;99951.19;;;25.95;89.02
10668;BME280;5382;42.136;24.796;2022-07-29T07:06:44;99954.94;;;25.94;88.89
10668;BME280;5382;42.136;24.796;2022-07-29T07:09:11;99941.16;;;26.02;88.50
10668;BME280;5382;42.136;24.796;2022-07-29T07:11:38;99946.78;;;26.07;86.95
10668;BME280;5382;42.136;24.796;2022-07-29T07:14:06;99945.53;;;26.16;84.98
10668;BME280;5382;42.136;24.796;2022-07-29T07:16:33;99938.66;;;26.20;84.40
10668;BME280;5382;42.136;24.796;2022-07-29T07:19:03;99923.81;;;26.16;83.35
10668;BME280;5382;42.136;24.796;2022-07-29T07:21:29;99918.59;;;26.21;84.32
10668;BME280;5382;42.136;24.796;2022-07-29T07:23:56;99937.16;;;26.24;83.05
10668;BME280;5382;42.136;24.796;2022-07-29T07:26:23;99944.06;;;26.20;83.94
10668;BME280;5382;42.136;24.796;2022-07-29T07:28:50;99942.16;;;26.27;83.34
10668;BME280;5382;42.136;24.796;2022-07-29T07:31:18;99940.22;;;26.48;84.23
10668;BME280;5382;42.136;24.796;2022-07-29T07:33:45;99948.16;;;26.56;80.69
10668;BME280;5382;42.136;24.796;2022-07-29T07:36:12;99944.41;;;26.57;80.31
10668;BME280;5382;42.136;24.796;2022-07-29T07:38:39;99936.91;;;26.59;79.64
10668;BME280;5382;42.136;24.796;2022-07-29T07:41:06;99945.19;;;26.71;80.70
10668;BME280;5382;42.136;24.796;2022-07-29T07:43:33;99917.03;;;26.65;78.97
10668;BME280;5382;42.136;24.796;2022-07-29T07:45:59;99929.66;;;26.85;79.05
10668;BME280;5382;42.136;24.796;2022-07-29T07:48:28;99931.50;;;26.97;79.40
10668;BME280;5382;42.136;24.796;2022-07-29T07:50:55;99911.25;;;26.93;73.24
10668;BME280;5382;42.136;24.796;2022-07-29T07:53:22;99935.59;;;27.20;72.80
10668;BME280;5382;42.136;24.796;2022-07-29T07:55:48;99913.81;;;27.27;72.49
10668;BME280;5382;42.136;24.796;2022-07-29T07:58:15;99926.03;;;27.43;67.28
10668;BME280;5382;42.136;24.796;2022-07-29T08:00:42;99930.38;;;27.50;64.12
10668;BME280;5382;42.136;24.796;2022-07-29T08:03:09;99913.00;;;27.51;64.00
10668;BME280;5382;42.136;24.796;2022-07-29T08:05:39;99925.63;;;27.71;63.01
10668;BME280;5382;42.136;24.796;2022-07-29T08:08:07;99924.50;;;27.78;61.45
10668;BME280;5382;42.136;24.796;2022-07-29T08:10:34;99921.91;;;27.90;60.77
10668;BME280;5382;42.136;24.796;2022-07-29T08:13:19;99927.66;;;28.00;60.09
10668;BME280;5382;42.136;24.796;2022-07-29T08:15:47;99925.88;;;28.13;58.49
10668;BME280;5382;42.136;24.796;2022-07-29T08:18:22;99925.38;;;28.22;57.84
10668;BME280;5382;42.136;24.796;2022-07-29T08:20:51;99923.56;;;28.35;56.32
10668;BME280;5382;42.136;24.796;2022-07-29T08:23:18;99925.91;;;28.31;56.44
10668;BME280;5382;42.136;24.796;2022-07-29T08:25:45;99917.72;;;28.31;58.52
10668;BME280;5382;42.136;24.796;2022-07-29T08:28:12;99925.09;;;28.49;56.26
10668;BME280;5382;42.136;24.796;2022-07-29T08:30:39;99922.34;;;28.67;54.29
10668;BME280;5382;42.136;24.796;2022-07-29T08:33:06;99913.44;;;28.79;51.38
10668;BME280;5382;42.136;24.796;2022-07-29T08:35:33;99911.50;;;28.98;52.86
10668;BME280;5382;42.136;24.796;2022-07-29T08:38:01;99911.59;;;29.21;51.38
10668;BME280;5382;42.136;24.796;2022-07-29T08:40:28;99917.25;;;29.38;49.63
10668;BME280;5382;42.136;24.796;2022-07-29T08:42:56;99910.63;;;29.57;48.09
10668;BME280;5382;42.136;24.796;2022-07-29T08:45:23;99888.69;;;29.52;48.06
10668;BME280;5382;42.136;24.796;2022-07-29T08:47:49;99906.53;;;29.78;47.96
10668;BME280;5382;42.136;24.796;2022-07-29T08:50:16;99896.69;;;29.89;46.89
10668;BME280;5382;42.136;24.796;2022-07-29T08:52:43;99897.41;;;29.96;48.73
10668;BME280;5382;42.136;24.796;2022-07-29T08:55:15;99880.69;;;29.93;47.85
10668;BME280;5382;42.136;24.796;2022-07-29T08:57:43;99891.22;;;30.13;45.83
10668;BME280;5382;42.136;24.796;2022-07-29T09:00:11;99884.34;;;30.34;45.41
10668;BME280;5382;42.136;24.796;2022-07-29T09:02:40;99862.50;;;30.34;45.09
10668;BME280;5382;42.136;24.796;2022-07-29T09:05:08;99879.81;;;30.39;44.50
10668;BME280;5382;42.136;24.796;2022-07-29T09:07:35;99872.47;;;30.28;40.09
10668;BME280;5382;42.136;24.796;2022-07-29T09:10:04;99880.25;;;30.48;41.14
10668;BME280;5382;42.136;24.796;2022-07-29T09:12:33;99879.59;;;30.70;40.65
10668;BME280;5382;42.136;24.796;2022-07-29T09:15:00;99874.72;;;31.00;39.31
10668;BME280;5382;42.136;24.796;2022-07-29T09:17:43;99863.97;;;31.11;39.68
10668;BME280;5382;42.136;24.796;2022-07-29T09:20:11;99869.16;;;31.24;40.35
10668;BME280;5382;42.136;24.796;2022-07-29T09:22:39;99868.78;;;31.03;37.97
10668;BME280;5382;42.136;24.796;2022-07-29T09:25:06;99836.97;;;30.97;38.16
10668;BME280;5382;42.136;24.796;2022-07-29T09:27:35;99862.50;;;31.20;37.54
10668;BME280;5382;42.136;24.796;2022-07-29T09:30:04;99859.38;;;31.28;38.27
10668;BME280;5382;42.136;24.796;2022-07-29T09:32:32;99858.25;;;31.58;39.85
10668;BME280;5382;42.136;24.796;2022-07-29T09:35:15;99854.69;;;31.40;38.17
10668;BME280;5382;42.136;24.796;2022-07-29T09:37:42;99860.81;;;31.47;38.17
10668;BME280;5382;42.136;24.796;2022-07-29T09:40:15;99862.88;;;31.57;38.33
10668;BME280;5382;42.136;24.796;2022-07-29T09:42:44;99829.44;;;31.72;38.17
10668;BME280;5382;42.136;24.796;2022-07-29T09:45:12;99853.25;;;31.88;34.58
10668;BME280;5382;42.136;24.796;2022-07-29T09:47:44;99819.69;;;31.76;34.64
10668;BME280;5382;42.136;24.796;2022-07-29T09:50:12;99851.75;;;31.98;34.81
10668;BME280;5382;42.136;24.796;2022-07-29T09:52:45;99850.38;;;32.17;35.05
10668;BME280;5382;42.136;24.796;2022-07-29T09:55:13;99847.69;;;32.44;34.18
10668;BME280;5382;42.136;24.796;2022-07-29T09:57:40;99840.44;;;32.55;33.41
10668;BME280;5382;42.136;24.796;2022-07-29T10:00:10;99841.84;;;32.57;32.49
10668;BME280;5382;42.136;24.796;2022-07-29T10:02:40;99837.22;;;32.63;31.37
10668;BME280;5382;42.136;24.796;2022-07-29T10:05:17;99850.16;;;32.68;31.96
10668;BME280;5382;42.136;24.796;2022-07-29T10:07:46;99842.88;;;32.78;32.37
10668;BME280;5382;42.136;24.796;2022-07-29T10:10:20;99841.09;;;32.89;32.40
10668;BME280;5382;42.136;24.796;2022-07-29T10:12:52;99841.25;;;33.05;32.90
10668;BME280;5382;42.136;24.796;2022-07-29T10:15:23;99829.59;;;33.19;31.57
10668;BME280;5382;42.136;24.796;2022-07-29T10:17:50;99837.84;;;33.24;31.68
10668;BME280;5382;42.136;24.796;2022-07-29T10:20:18;99839.78;;;33.24;33.32
10668;BME280;5382;42.136;24.796;2022-07-29T10:22:46;99837.41;;;33.38;33.12
10668;BME280;5382;42.136;24.796;2022-07-29T10:25:14;99830.53;;;33.35;33.89
10668;BME280;5382;42.136;24.796;2022-07-29T10:27:41;99833.09;;;33.47;33.72
10668;BME280;5382;42.136;24.796;2022-07-29T10:30:09;99800.75;;;33.49;31.80
10668;BME280;5382;42.136;24.796;2022-07-29T10:33:01;99812.28;;;33.94;32.08
10668;BME280;5382;42.136;24.796;2022-07-29T10:35:43;99806.84;;;34.04;32.19
10668;BME280;5382;42.136;24.796;2022-07-29T10:38:30;99806.41;;;34.27;32.90
10668;BME280;5382;42.136;24.796;2022-07-29T10:41:11;99811.41;;;34.41;31.28
10668;BME280;5382;42.136;24.796;2022-07-29T10:43:58;99803.28;;;35.02;31.70
10668;BME280;5382;42.136;24.796;2022-07-29T10:46:26;99759.00;;;35.39;30.94
10668;BME280;5382;42.136;24.796;2022-07-29T10:49:09;99798.28;;;35.91;31.41
10668;BME280;5382;42.136;24.796;2022-07-29T10:54:48;99784.78;;;35.85;29.99
10668;BME280;5382;42.136;24.796;2022-07-29T10:57:21;99764.31;;;36.06;29.43
10668;BME280;5382;42.136;24.796;2022-07-29T10:59:51;99779.84;;;36.46;30.08
10668;BME280;5382;42.136;24.796;2022-07-29T11:02:43;99775.88;;;37.02;29.92
10668;BME280;5382;42.136;24.796;2022-07-29T11:05:13;99760.69;;;37.10;28.67
10668;BME280;5382;42.136;24.796;2022-07-29T11:08:20;99778.56;;;37.42;28.46
10668;BME280;5382;42.136;24.796;2022-07-29T11:10:49;99722.91;;;37.05;28.53
10668;BME280;5382;42.136;24.796;2022-07-29T11:13:47;99769.94;;;38.02;28.13
10668;BME280;5382;42.136;24.796;2022-07-29T11:16:16;99764.53;;;37.67;29.13
10668;BME280;5382;42.136;24.796;2022-07-29T11:19:20;99752.66;;;37.91;28.15
10668;BME280;5382;42.136;24.796;2022-07-29T11:21:48;99755.72;;;37.36;28.51
10668;BME280;5382;42.136;24.796;2022-07-29T11:24:20;99753.66;;;37.76;27.48
10668;BME280;5382;42.136;24.796;2022-07-29T11:27:22;99729.91;;;38.18;27.03
10668;BME280;5382;42.136;24.796;2022-07-29T11:29:51;99742.03;;;38.41;26.42
10668;BME280;5382;42.136;24.796;2022-07-29T11:32:18;99737.25;;;38.66;26.30
10668;BME280;5382;42.136;24.796;2022-07-29T11:34:47;99731.16;;;38.82;26.86
10668;BME280;5382;42.136;24.796;2022-07-29T11:37:19;99717.31;;;38.82;26.60
10668;BME280;5382;42.136;24.796;2022-07-29T11:42:46;99728.31;;;38.88;25.68
10668;BME280;5382;42.136;24.796;2022-07-29T11:45:17;99699.53;;;38.56;26.31
10668;BME280;5382;42.136;24.796;2022-07-29T11:47:50;99725.97;;;39.28;25.46
10668;BME280;5382;42.136;24.796;2022-07-29T11:50:30;99696.63;;;38.99;25.08
10668;BME280;5382;42.136;24.796;2022-07-29T11:52:59;99722.41;;;39.41;24.75
10668;BME280;5382;42.136;24.796;2022-07-29T11:55:26;99685.47;;;39.18;24.81
10668;BME280;5382;42.136;24.796;2022-07-29T11:57:56;99700.66;;;39.62;25.35
10668;BME280;5382;42.136;24.796;2022-07-29T12:00:26;99704.44;;;40.44;24.90
10668;BME280;5382;42.136;24.796;2022-07-29T12:02:54;99704.94;;;40.09;24.06
10668;BME280;5382;42.136;24.796;2022-07-29T12:05:25;99621.13;;;39.40;23.96
10668;BME280;5382;42.136;24.796;2022-07-29T12:08:05;99690.56;;;40.07;23.01
10668;BME280;5382;42.136;24.796;2022-07-29T12:10:32;99690.88;;;40.42;23.79
10668;BME280;5382;42.136;24.796;2022-07-29T12:12:59;99696.13;;;40.44;22.88
10668;BME280;5382;42.136;24.796;2022-07-29T12:15:26;99660.34;;;40.20;22.42
10668;BME280;5382;42.136;24.796;2022-07-29T12:17:53;99668.47;;;40.16;23.24
10668;BME280;5382;42.136;24.796;2022-07-29T12:20:25;99616.16;;;39.09;23.87
10668;BME280;5382;42.136;24.796;2022-07-29T12:22:53;99658.38;;;39.98;23.50
10668;BME280;5382;42.136;24.796;2022-07-29T12:25:23;99686.22;;;40.29;23.50
10668;BME280;5382;42.136;24.796;2022-07-29T12:27:59;99656.41;;;40.34;23.15
10668;BME280;5382;42.136;24.796;2022-07-29T12:30:37;99677.59;;;40.30;23.37
10668;BME280;5382;42.136;24.796;2022-07-29T12:33:12;99620.69;;;40.33;22.94
10668;BME280;5382;42.136;24.796;2022-07-29T12:35:39;99670.31;;;40.88;23.03
10668;BME280;5382;42.136;24.796;2022-07-29T12:38:08;99678.63;;;41.51;23.04
10668;BME280;5382;42.136;24.796;2022-07-29T12:40:37;99673.44;;;41.67;22.71
10668;BME280;5382;42.136;24.796;2022-07-29T12:43:08;99635.97;;;41.47;22.26
10668;BME280;5382;42.136;24.796;2022-07-29T12:45:37;99677.22;;;41.62;21.99
10668;BME280;5382;42.136;24.796;2022-07-29T12:48:07;99676.41;;;41.70;22.09
10668;BME280;5382;42.136;24.796;2022-07-29T12:50:35;99656.84;;;42.01;21.53
10668;BME280;5382;42.136;24.796;2022-07-29T12:53:10;99646.63;;;41.53;21.64
10668;BME280;5382;42.136;24.796;2022-07-29T12:55:43;99570.03;;;41.12;22.54
10668;BME280;5382;42.136;24.796;2022-07-29T12:58:14;99650.31;;;42.06;21.87
10668;BME280;5382;42.136;24.796;2022-07-29T13:01:00;99598.84;;;41.34;21.68
10668;BME280;5382;42.136;24.796;2022-07-29T13:03:27;99641.47;;;41.29;21.71
10668;BME280;5382;42.136;24.796;2022-07-29T13:05:54;99642.13;;;41.26;21.79
10668;BME280;5382;42.136;24.796;2022-07-29T13:08:21;99644.72;;;40.91;22.29
10668;BME280;5382;42.136;24.796;2022-07-29T13:10:49;99645.50;;;40.83;22.61
10668;BME280;5382;42.136;24.796;2022-07-29T13:13:16;99620.38;;;40.88;22.67
10668;BME280;5382;42.136;24.796;2022-07-29T13:15:46;99619.94;;;40.95;22.40
10668;BME280;5382;42.136;24.796;2022-07-29T13:18:33;99629.53;;;42.12;22.13
10668;BME280;5382;42.136;24.796;2022-07-29T13:21:10;99623.97;;;42.21;21.44
10668;BME280;5382;42.136;24.796;2022-07-29T13:23:38;99614.66;;;42.17;21.48
10668;BME280;5382;42.136;24.796;2022-07-29T13:26:07;99623.16;;;42.29;21.01
10668;BME280;5382;42.136;24.796;2022-07-29T13:28:34;99620.16;;;41.56;21.49
10668;BME280;5382;42.136;24.796;2022-07-29T13:31:01;99614.94;;;40.29;22.50
10668;BME280;5382;42.136;24.796;2022-07-29T13:33:28;99612.19;;;40.61;22.85